sensor_id;sensor_type;location;lat;lon;timestamp;temperature;humidity
14749;DHT22;7466;53.574;9.976;2022-11-15T00:00:47;6.60;99.90
14749;DHT22;7466;53.574;9.976;2022-11-15T00:03:14;6.60;99.90
14749;DHT22;7466;53.574;9.976;2022-11-15T00:05:44;6.70;99.90
14749;DHT22;7466;53.574;9.976;2022-11-15T00:08:12;6.60;99.90
14749;DHT22;7466;53.574;9.976;2022-11-15T00:10:38;6.60;99.90
14749;DHT22;7466;53.574;9.976;2022-11-15T00:13:06;6.60;99.90
14749;DHT22;7466;53.574;9.976;2022-11-15T00:15:35;6.60;99.90
14749;DHT22;7466;53.574;9.976;2022-11-15T00:18:02;6.50;99.90
14749;DHT22;7466;53.574;9.976;2022-11-15T00:20:29;6.50;99.90
14749;DHT22;7466;53.574;9.976;2022-11-15T00:22:57;6.50;99.90
14749;DHT22;7466;53.574;9.976;2022-11-15T00:25:24;6.60;99.90
14749;DHT22;7466;53.574;9.976;2022-11-15T00:27:54;6.60;99.90
14749;DHT22;7466;53.574;9.976;2022-11-15T00:30:21;6.60;99.90
14749;DHT22;7466;53.574;9.976;2022-11-15T00:32:47;6.70;99.90
14749;DHT22;7466;53.574;9.976;2022-11-15T00:35:14;6.70;99.90
14749;DHT22;7466;53.574;9.976;2022-11-15T00:37:41;6.70;99.90
14749;DHT22;7466;53.574;9.976;2022-11-15T00:40:11;6.70;99.90
14749;DHT22;7466;53.574;9.976;2022-11-15T00:42:39;6.70;99.90
14749;DHT22;7466;53.574;9.976;2022-11-15T00:45:06;6.70;99.90
14749;DHT22;7466;53.574;9.976;2022-11-15T00:47:33;6.60;99.90
14749;DHT22;7466;53.574;9.976;2022-11-15T00:50:00;6.60;99.90
14749;DHT22;7466;53.574;9.976;2022-11-15T00:52:27;6.60;99.90
14749;DHT22;7466;53.574;9.976;2022-11-15T00:54:53;6.50;99.90
14749;DHT22;7466;53.574;9.976;2022-11-15T00:57:21;6.50;99.90
14749;DHT22;7466;53.574;9.976;2022-11-15T00:59:48;6.60;99.90
14749;DHT22;7466;53.574;9.976;2022-11-15T01:02:15;6.50;99.90
14749;DHT22;7466;53.574;9.976;2022-11-15T01:04:42;6.60;99.90
14749;DHT22;7466;53.574;9.976;2022-11-15T01:07:08;6.50;99.90
14749;DHT22;7466;53.574;9.976;2022-11-15T01:09:35;6.50;99.90
14749;DHT22;7466;53.574;9.976;2022-11-15T01:12:02;6.50;99.90
14749;DHT22;7466;53.574;9.976;2022-11-15T01:14:30;6.40;99.90
14749;DHT22;7466;53.574;9.976;2022-11-15T01:16:57;6.40;99.90
14749;DHT22;7466;53.574;9.976;2022-11-15T01:19:24;6.30;99.90
14749;DHT22;7466;53.574;9.976;2022-11-15T01:21:51;6.30;99.90
14749;DHT22;7466;53.574;9.976;2022-11-15T01:24:18;6.20;99.90
14749;DHT22;7466;53.574;9.976;2022-11-15T01:26:44;6.20;99.90
14749;DHT22;7466;53.574;9.976;2022-11-15T01:29:11;6.20;99.90
14749;DHT22;7466;53.574;9.976;2022-11-15T01:31:39;6.10;99.90
14749;DHT22;7466;53.574;9.976;2022-11-15T01:34:06;6.10;99.90
14749;DHT22;7466;53.574;9.976;2022-11-15T01:36:33;6.00;99.90
14749;DHT22;7466;53.574;9.976;2022-11-15T01:38:59;6.00;99.90
14749;DHT22;7466;53.574;9.976;2022-11-15T01:41:28;6.00;99.90
14749;DHT22;7466;53.574;9.976;2022-11-15T01:43:56;6.00;99.90
14749;DHT22;7466;53.574;9.976;2022-11-15T01:46:29;5.90;99.90
14749;DHT22;7466;53.574;9.976;2022-11-15T01:49:01;5.90;99.90
14749;DHT22;7466;53.574;9.976;2022-11-15T01:51:30;5.90;99.90
14749;DHT22;7466;53.574;9.976;2022-11-15T01:54:02;5.90;99.90
14749;DHT22;7466;53.574;9.976;2022-11-15T01:56:33;5.90;99.90
14749;DHT22;7466;53.574;9.976;2022-11-15T01:59:04;5.80;99.90
14749;DHT22;7466;53.574;9.976;2022-11-15T02:01:33;5.80;99.90
14749;DHT22;7466;53.574;9.976;2022-11-15T02:04:03;5.80;99.90
14749;DHT22;7466;53.574;9.976;2022-11-15T02:06:32;5.70;99.90
14749;DHT22;7466;53.574;9.976;2022-11-15T02:09:00;5.70;99.90
14749;DHT22;7466;53.574;9.976;2022-11-15T02:11:27;5.70;99.90
14749;DHT22;7466;53.574;9.976;2022-11-15T02:13:55;5.60;99.90
14749;DHT22;7466;53.574;9.976;2022-11-15T02:16:27;5.70;99.90
14749;DHT22;7466;53.574;9.976;2022-11-15T02:19:02;5.60;99.90
14749;DHT22;7466;53.574;9.976;2022-11-15T02:21:39;5.60;99.90
14749;DHT22;7466;53.574;9.976;2022-11-15T02:24:32;5.60;99.90
14749;DHT22;7466;53.574;9.976;2022-11-15T02:27:19;5.60;99.90
14749;DHT22;7466;53.574;9.976;2022-11-15T02:30:04;5.60;99.90
14749;DHT22;7466;53.574;9.976;2022-11-15T02:32:36;5.50;99.90
14749;DHT22;7466;53.574;9.976;2022-11-15T02:35:12;5.60;99.90
14749;DHT22;7466;53.574;9.976;2022-11-15T02:37:46;5.50;99.90
14749;DHT22;7466;53.574;9.976;2022-11-15T02:40:26;5.50;99.90
14749;DHT22;7466;53.574;9.976;2022-11-15T02:42:59;5.50;99.90
14749;DHT22;7466;53.574;9.976;2022-11-15T02:45:47;5.50;99.90
14749;DHT22;7466;53.574;9.976;2022-11-15T02:48:17;5.50;99.90
14749;DHT22;7466;53.574;9.976;2022-11-15T02:50:45;5.50;99.90
14749;DHT22;7466;53.574;9.976;2022-11-15T02:53:14;5.50;99.90
14749;DHT22;7466;53.574;9.976;2022-11-15T02:55:43;5.60;99.90
14749;DHT22;7466;53.574;9.976;2022-11-15T02:58:28;5.50;99.90
14749;DHT22;7466;53.574;9.976;2022-11-15T03:01:02;5.50;99.90
14749;DHT22;7466;53.574;9.976;2022-11-15T03:03:46;5.50;99.90
14749;DHT22;7466;53.574;9.976;2022-11-15T03:06:22;5.40;99.90
14749;DHT22;7466;53.574;9.976;2022-11-15T03:09:00;5.40;99.90
14749;DHT22;7466;53.574;9.976;2022-11-15T03:11:31;5.40;99.90
14749;DHT22;7466;53.574;9.976;2022-11-15T03:14:05;5.30;99.90
14749;DHT22;7466;53.574;9.976;2022-11-15T03:16:38;5.40;99.90
14749;DHT22;7466;53.574;9.976;2022-11-15T03:19:13;5.30;99.90
14749;DHT22;7466;53.574;9.976;2022-11-15T03:21:40;5.40;99.90
14749;DHT22;7466;53.574;9.976;2022-11-15T03:24:08;5.30;99.90
14749;DHT22;7466;53.574;9.976;2022-11-15T03:26:37;5.40;99.90
14749;DHT22;7466;53.574;9.976;2022-11-15T03:29:07;5.40;99.90
14749;DHT22;7466;53.574;9.976;2022-11-15T03:31:38;5.40;99.90
14749;DHT22;7466;53.574;9.976;2022-11-15T03:34:22;5.50;99.90
14749;DHT22;7466;53.574;9.976;2022-11-15T03:36:51;5.50;99.90
14749;DHT22;7466;53.574;9.976;2022-11-15T03:39:20;5.40;99.90
14749;DHT22;7466;53.574;9.976;2022-11-15T03:41:49;5.50;99.90
14749;DHT22;7466;53.574;9.976;2022-11-15T03:44:27;5.50;99.90
14749;DHT22;7466;53.574;9.976;2022-11-15T03:47:02;5.50;99.90
14749;DHT22;7466;53.574;9.976;2022-11-15T03:49:33;5.50;99.90
14749;DHT22;7466;53.574;9.976;2022-11-15T03:52:02;5.50;99.90
14749;DHT22;7466;53.574;9.976;2022-11-15T03:54:30;5.50;99.90
14749;DHT22;7466;53.574;9.976;2022-11-15T03:56:57;5.60;99.90
14749;DHT22;7466;53.574;9.976;2022-11-15T03:59:23;5.60;99.90
14749;DHT22;7466;53.574;9.976;2022-11-15T04:01:50;5.60;99.90
14749;DHT22;7466;53.574;9.976;2022-11-15T04:04:17;5.60;99.90
14749;DHT22;7466;53.574;9.976;2022-11-15T04:06:45;5.60;99.90
14749;DHT22;7466;53.574;9.976;2022-11-15T04:09:12;5.70;99.90
14749;DHT22;7466;53.574;9.976;2022-11-15T04:11:38;5.70;99.90
14749;DHT22;7466;53.574;9.976;2022-11-15T04:14:05;5.70;99.90
14749;DHT22;7466;53.574;9.976;2022-11-15T04:16:32;5.70;99.90
14749;DHT22;7466;53.574;9.976;2022-11-15T04:18:58;5.80;99.90
14749;DHT22;7466;53.574;9.976;2022-11-15T04:21:44;5.80;99.90
14749;DHT22;7466;53.574;9.976;2022-11-15T04:24:28;5.80;99.90
14749;DHT22;7466;53.574;9.976;2022-11-15T04:26:55;6.00;99.90
14749;DHT22;7466;53.574;9.976;2022-11-15T04:29:22;6.00;99.90
14749;DHT22;7466;53.574;9.976;2022-11-15T04:32:01;6.00;99.90
14749;DHT22;7466;53.574;9.976;2022-11-15T04:34:28;6.00;99.90
14749;DHT22;7466;53.574;9.976;2022-11-15T04:36:56;6.10;99.90
14749;DHT22;7466;53.574;9.976;2022-11-15T04:39:38;6.00;99.90
14749;DHT22;7466;53.574;9.976;2022-11-15T04:42:04;6.00;99.90
14749;DHT22;7466;53.574;9.976;2022-11-15T04:44:31;6.10;99.90
14749;DHT22;7466;53.574;9.976;2022-11-15T04:46:58;6.10;99.90
14749;DHT22;7466;53.574;9.976;2022-11-15T04:49:24;6.20;99.90
14749;DHT22;7466;53.574;9.976;2022-11-15T04:51:52;6.20;99.90
14749;DHT22;7466;53.574;9.976;2022-11-15T04:54:20;6.30;99.90
14749;DHT22;7466;53.574;9.976;2022-11-15T04:56:47;6.30;99.90
14749;DHT22;7466;53.574;9.976;2022-11-15T04:59:13;6.40;99.90
14749;DHT22;7466;53.574;9.976;2022-11-15T05:01:40;6.40;99.90
14749;DHT22;7466;53.574;9.976;2022-11-15T05:04:07;6.40;99.90
14749;DHT22;7466;53.574;9.976;2022-11-15T05:06:46;6.40;99.90
14749;DHT22;7466;53.574;9.976;2022-11-15T05:09:13;6.40;99.90
14749;DHT22;7466;53.574;9.976;2022-11-15T05:11:41;6.40;99.90
14749;DHT22;7466;53.574;9.976;2022-11-15T05:14:08;6.40;99.90
14749;DHT22;7466;53.574;9.976;2022-11-15T05:16:35;6.40;99.90
14749;DHT22;7466;53.574;9.976;2022-11-15T05:19:02;6.40;99.90
14749;DHT22;7466;53.574;9.976;2022-11-15T05:21:29;6.40;99.90
14749;DHT22;7466;53.574;9.976;2022-11-15T05:23:56;6.40;99.90
14749;DHT22;7466;53.574;9.976;2022-11-15T05:26:23;6.40;99.90
14749;DHT22;7466;53.574;9.976;2022-11-15T05:28:54;6.40;99.90
14749;DHT22;7466;53.574;9.976;2022-11-15T05:31:21;6.50;99.90
14749;DHT22;7466;53.574;9.976;2022-11-15T05:33:48;6.50;99.90
14749;DHT22;7466;53.574;9.976;2022-11-15T05:36:20;6.60;99.90
14749;DHT22;7466;53.574;9.976;2022-11-15T05:38:48;6.60;99.90
14749;DHT22;7466;53.574;9.976;2022-11-15T05:41:16;6.70;99.90
14749;DHT22;7466;53.574;9.976;2022-11-15T05:43:44;6.70;99.90
14749;DHT22;7466;53.574;9.976;2022-11-15T05:46:12;6.70;99.90
14749;DHT22;7466;53.574;9.976;2022-11-15T05:48:41;6.80;99.90
14749;DHT22;7466;53.574;9.976;2022-11-15T05:51:09;6.80;99.90
14749;DHT22;7466;53.574;9.976;2022-11-15T05:53:36;6.80;99.90
14749;DHT22;7466;53.574;9.976;2022-11-15T05:56:04;6.90;99.90
14749;DHT22;7466;53.574;9.976;2022-11-15T05:58:32;6.90;99.90
14749;DHT22;7466;53.574;9.976;2022-11-15T06:00:59;7.00;99.90
14749;DHT22;7466;53.574;9.976;2022-11-15T06:03:28;7.00;99.90
14749;DHT22;7466;53.574;9.976;2022-11-15T06:05:56;7.00;99.90
14749;DHT22;7466;53.574;9.976;2022-11-15T06:08:22;7.10;99.90
14749;DHT22;7466;53.574;9.976;2022-11-15T06:10:49;7.10;99.90
14749;DHT22;7466;53.574;9.976;2022-11-15T06:13:16;7.10;99.90
14749;DHT22;7466;53.574;9.976;2022-11-15T06:15:43;7.20;99.90
14749;DHT22;7466;53.574;9.976;2022-11-15T06:18:09;7.20;99.90
14749;DHT22;7466;53.574;9.976;2022-11-15T06:20:37;7.30;99.90
14749;DHT22;7466;53.574;9.976;2022-11-15T06:23:05;7.30;99.90
14749;DHT22;7466;53.574;9.976;2022-11-15T06:25:31;7.30;99.90
14749;DHT22;7466;53.574;9.976;2022-11-15T06:27:59;7.40;99.90
14749;DHT22;7466;53.574;9.976;2022-11-15T06:30:26;7.40;99.90
14749;DHT22;7466;53.574;9.976;2022-11-15T06:32:59;7.40;99.90
14749;DHT22;7466;53.574;9.976;2022-11-15T06:35:26;7.40;99.90
14749;DHT22;7466;53.574;9.976;2022-11-15T06:37:54;7.50;99.90
14749;DHT22;7466;53.574;9.976;2022-11-15T06:40:21;7.50;99.90
14749;DHT22;7466;53.574;9.976;2022-11-15T06:42:47;7.50;99.90
14749;DHT22;7466;53.574;9.976;2022-11-15T06:45:14;7.50;99.90
14749;DHT22;7466;53.574;9.976;2022-11-15T06:47:44;7.50;99.90
14749;DHT22;7466;53.574;9.976;2022-11-15T06:50:12;7.50;99.90
14749;DHT22;7466;53.574;9.976;2022-11-15T06:52:38;7.50;99.90
14749;DHT22;7466;53.574;9.976;2022-11-15T06:55:08;7.50;99.90
14749;DHT22;7466;53.574;9.976;2022-11-15T06:57:35;7.50;99.90
14749;DHT22;7466;53.574;9.976;2022-11-15T07:00:03;7.50;99.90
14749;DHT22;7466;53.574;9.976;2022-11-15T07:02:30;7.60;99.90
14749;DHT22;7466;53.574;9.976;2022-11-15T07:04:57;7.60;99.90
14749;DHT22;7466;53.574;9.976;2022-11-15T07:07:24;7.50;99.90
14749;DHT22;7466;53.574;9.976;2022-11-15T07:09:50;7.50;99.90
14749;DHT22;7466;53.574;9.976;2022-11-15T07:12:18;7.50;99.90
14749;DHT22;7466;53.574;9.976;2022-11-15T07:14:45;7.50;99.90
14749;DHT22;7466;53.574;9.976;2022-11-15T07:17:12;7.60;99.90
14749;DHT22;7466;53.574;9.976;2022-11-15T07:19:38;7.50;99.90
14749;DHT22;7466;53.574;9.976;2022-11-15T07:22:05;7.50;99.90
14749;DHT22;7466;53.574;9.976;2022-11-15T07:24:32;7.50;99.90
14749;DHT22;7466;53.574;9.976;2022-11-15T07:26:59;7.50;99.90
14749;DHT22;7466;53.574;9.976;2022-11-15T07:29:27;7.50;99.90
14749;DHT22;7466;53.574;9.976;2022-11-15T07:31:54;7.50;99.90
14749;DHT22;7466;53.574;9.976;2022-11-15T07:34:21;7.50;99.90
14749;DHT22;7466;53.574;9.976;2022-11-15T07:36:49;7.50;99.90
14749;DHT22;7466;53.574;9.976;2022-11-15T07:39:15;7.60;99.90
14749;DHT22;7466;53.574;9.976;2022-11-15T07:41:42;7.60;99.90
14749;DHT22;7466;53.574;9.976;2022-11-15T07:44:10;7.60;99.90
14749;DHT22;7466;53.574;9.976;2022-11-15T07:46:38;7.60;99.90
14749;DHT22;7466;53.574;9.976;2022-11-15T07:49:04;7.60;99.90
14749;DHT22;7466;53.574;9.976;2022-11-15T07:51:31;7.70;99.90
14749;DHT22;7466;53.574;9.976;2022-11-15T07:53:58;7.70;99.90
14749;DHT22;7466;53.574;9.976;2022-11-15T07:56:25;7.70;99.90
14749;DHT22;7466;53.574;9.976;2022-11-15T07:58:52;7.70;99.90
14749;DHT22;7466;53.574;9.976;2022-11-15T08:01:18;7.70;99.90
14749;DHT22;7466;53.574;9.976;2022-11-15T08:03:47;7.70;99.90
14749;DHT22;7466;53.574;9.976;2022-11-15T08:06:13;7.70;99.90
14749;DHT22;7466;53.574;9.976;2022-11-15T08:08:40;7.70;99.90
14749;DHT22;7466;53.574;9.976;2022-11-15T08:11:07;7.80;99.90
14749;DHT22;7466;53.574;9.976;2022-11-15T08:13:33;7.80;99.90
14749;DHT22;7466;53.574;9.976;2022-11-15T08:16:02;7.80;99.90
14749;DHT22;7466;53.574;9.976;2022-11-15T08:18:31;7.80;99.90
14749;DHT22;7466;53.574;9.976;2022-11-15T08:21:00;7.80;99.90
14749;DHT22;7466;53.574;9.976;2022-11-15T08:23:27;7.80;99.90
14749;DHT22;7466;53.574;9.976;2022-11-15T08:25:59;7.80;99.90
14749;DHT22;7466;53.574;9.976;2022-11-15T08:28:26;7.80;99.90
14749;DHT22;7466;53.574;9.976;2022-11-15T08:30:53;7.80;99.90
14749;DHT22;7466;53.574;9.976;2022-11-15T08:33:19;7.90;99.90
14749;DHT22;7466;53.574;9.976;2022-11-15T08:35:46;7.90;99.90
14749;DHT22;7466;53.574;9.976;2022-11-15T08:38:14;8.00;99.90
14749;DHT22;7466;53.574;9.976;2022-11-15T08:40:41;8.00;99.90
14749;DHT22;7466;53.574;9.976;2022-11-15T08:43:08;8.00;99.90
14749;DHT22;7466;53.574;9.976;2022-11-15T08:45:35;8.00;99.90
14749;DHT22;7466;53.574;9.976;2022-11-15T08:48:03;8.10;99.90
14749;DHT22;7466;53.574;9.976;2022-11-15T08:50:30;8.10;99.90
14749;DHT22;7466;53.574;9.976;2022-11-15T08:52:57;8.10;99.90
14749;DHT22;7466;53.574;9.976;2022-11-15T08:55:25;8.10;99.90
14749;DHT22;7466;53.574;9.976;2022-11-15T08:57:52;8.10;99.90
14749;DHT22;7466;53.574;9.976;2022-11-15T09:00:19;8.10;99.90
14749;DHT22;7466;53.574;9.976;2022-11-15T09:02:46;8.20;99.90
14749;DHT22;7466;53.574;9.976;2022-11-15T09:05:13;8.20;99.90
14749;DHT22;7466;53.574;9.976;2022-11-15T09:07:40;8.20;99.90
14749;DHT22;7466;53.574;9.976;2022-11-15T09:10:08;8.30;99.90
14749;DHT22;7466;53.574;9.976;2022-11-15T09:12:36;8.30;99.90
14749;DHT22;7466;53.574;9.976;2022-11-15T09:15:03;8.40;99.90
14749;DHT22;7466;53.574;9.976;2022-11-15T09:17:31;8.40;99.90
14749;DHT22;7466;53.574;9.976;2022-11-15T09:19:57;8.40;99.90
14749;DHT22;7466;53.574;9.976;2022-11-15T09:22:24;8.50;99.90
14749;DHT22;7466;53.574;9.976;2022-11-15T09:24:51;8.50;99.90
14749;DHT22;7466;53.574;9.976;2022-11-15T09:27:18;8.60;99.90
14749;DHT22;7466;53.574;9.976;2022-11-15T09:29:46;8.70;99.90
14749;DHT22;7466;53.574;9.976;2022-11-15T09:32:13;8.70;99.90
14749;DHT22;7466;53.574;9.976;2022-11-15T09:34:39;8.80;99.90
14749;DHT22;7466;53.574;9.976;2022-11-15T09:37:06;8.90;99.90
14749;DHT22;7466;53.574;9.976;2022-11-15T09:39:33;8.90;99.90
14749;DHT22;7466;53.574;9.976;2022-11-15T09:42:10;9.00;99.90
14749;DHT22;7466;53.574;9.976;2022-11-15T09:45:03;9.00;99.90
14749;DHT22;7466;53.574;9.976;2022-11-15T09:47:49;9.20;99.90
14749;DHT22;7466;53.574;9.976;2022-11-15T09:50:30;9.30;99.90
14749;DHT22;7466;53.574;9.976;2022-11-15T09:52:57;9.30;99.90
14749;DHT22;7466;53.574;9.976;2022-11-15T09:55:34;9.40;99.90
14749;DHT22;7466;53.574;9.976;2022-11-15T09:58:07;9.30;99.90
14749;DHT22;7466;53.574;9.976;2022-11-15T10:00:40;9.30;99.90
14749;DHT22;7466;53.574;9.976;2022-11-15T10:03:11;9.40;99.90
14749;DHT22;7466;53.574;9.976;2022-11-15T10:05:40;9.40;99.90
14749;DHT22;7466;53.574;9.976;2022-11-15T10:08:20;9.40;99.90
14749;DHT22;7466;53.574;9.976;2022-11-15T10:10:51;9.40;99.90
14749;DHT22;7466;53.574;9.976;2022-11-15T10:13:23;9.50;99.90
14749;DHT22;7466;53.574;9.976;2022-11-15T10:15:53;9.50;99.90
14749;DHT22;7466;53.574;9.976;2022-11-15T10:18:25;9.60;99.90
14749;DHT22;7466;53.574;9.976;2022-11-15T10:20:59;9.70;99.90
14749;DHT22;7466;53.574;9.976;2022-11-15T10:23:27;9.80;99.90
14749;DHT22;7466;53.574;9.976;2022-11-15T10:25:56;9.80;99.90
14749;DHT22;7466;53.574;9.976;2022-11-15T10:28:27;9.80;99.90
14749;DHT22;7466;53.574;9.976;2022-11-15T10:30:57;9.80;99.90
14749;DHT22;7466;53.574;9.976;2022-11-15T10:33:27;9.90;99.90
14749;DHT22;7466;53.574;9.976;2022-11-15T10:36:21;9.80;99.90
14749;DHT22;7466;53.574;9.976;2022-11-15T10:38:55;9.90;99.90
14749;DHT22;7466;53.574;9.976;2022-11-15T10:41:29;9.90;99.90
14749;DHT22;7466;53.574;9.976;2022-11-15T10:44:19;9.90;99.90
14749;DHT22;7466;53.574;9.976;2022-11-15T10:47:05;9.90;99.90
14749;DHT22;7466;53.574;9.976;2022-11-15T10:49:33;9.90;99.90
14749;DHT22;7466;53.574;9.976;2022-11-15T10:52:02;9.90;99.90
14749;DHT22;7466;53.574;9.976;2022-11-15T10:54:34;10.00;99.90
14749;DHT22;7466;53.574;9.976;2022-11-15T10:57:07;10.00;99.90
14749;DHT22;7466;53.574;9.976;2022-11-15T10:59:36;10.00;99.90
14749;DHT22;7466;53.574;9.976;2022-11-15T11:02:27;10.10;99.90
14749;DHT22;7466;53.574;9.976;2022-11-15T11:04:54;10.10;99.90
14749;DHT22;7466;53.574;9.976;2022-11-15T11:07:23;10.20;99.90
14749;DHT22;7466;53.574;9.976;2022-11-15T11:09:57;10.30;99.90
14749;DHT22;7466;53.574;9.976;2022-11-15T11:12:28;10.40;99.90
14749;DHT22;7466;53.574;9.976;2022-11-15T11:14:57;10.40;99.90
14749;DHT22;7466;53.574;9.976;2022-11-15T11:17:34;10.40;99.90
14749;DHT22;7466;53.574;9.976;2022-11-15T11:20:07;10.40;99.90
14749;DHT22;7466;53.574;9.976;2022-11-15T11:22:41;10.40;99.90
14749;DHT22;7466;53.574;9.976;2022-11-15T11:25:17;10.40;99.90
14749;DHT22;7466;53.574;9.976;2022-11-15T11:27:57;10.40;99.90
14749;DHT22;7466;53.574;9.976;2022-11-15T11:30:35;10.40;99.90
14749;DHT22;7466;53.574;9.976;2022-11-15T11:33:12;10.40;99.90
14749;DHT22;7466;53.574;9.976;2022-11-15T11:35:47;10.50;99.90
14749;DHT22;7466;53.574;9.976;2022-11-15T11:38:31;10.50;99.90
14749;DHT22;7466;53.574;9.976;2022-11-15T11:41:06;10.60;99.90
14749;DHT22;7466;53.574;9.976;2022-11-15T11:43:41;10.70;99.90
14749;DHT22;7466;53.574;9.976;2022-11-15T11:46:28;10.60;99.90
14749;DHT22;7466;53.574;9.976;2022-11-15T11:49:04;10.70;99.90
14749;DHT22;7466;53.574;9.976;2022-11-15T11:51:38;10.60;99.90
14749;DHT22;7466;53.574;9.976;2022-11-15T11:54:11;10.70;99.90
14749;DHT22;7466;53.574;9.976;2022-11-15T11:56:40;10.60;99.90
14749;DHT22;7466;53.574;9.976;2022-11-15T11:59:16;10.70;99.90
14749;DHT22;7466;53.574;9.976;2022-11-15T12:01:45;10.60;99.90
14749;DHT22;7466;53.574;9.976;2022-11-15T12:04:16;10.70;99.90
14749;DHT22;7466;53.574;9.976;2022-11-15T12:06:49;10.70;99.90
14749;DHT22;7466;53.574;9.976;2022-11-15T12:09:21;10.80;99.90
14749;DHT22;7466;53.574;9.976;2022-11-15T12:12:02;10.80;99.90
14749;DHT22;7466;53.574;9.976;2022-11-15T12:14:35;11.00;99.90
14749;DHT22;7466;53.574;9.976;2022-11-15T12:17:07;11.10;99.90
14749;DHT22;7466;53.574;9.976;2022-11-15T12:19:36;11.20;99.90
14749;DHT22;7466;53.574;9.976;2022-11-15T12:22:08;11.30;99.90
14749;DHT22;7466;53.574;9.976;2022-11-15T12:24:39;11.40;99.90
14749;DHT22;7466;53.574;9.976;2022-11-15T12:27:15;11.50;99.90
14749;DHT22;7466;53.574;9.976;2022-11-15T12:29:46;11.60;99.90
14749;DHT22;7466;53.574;9.976;2022-11-15T12:32:23;11.70;99.90
14749;DHT22;7466;53.574;9.976;2022-11-15T12:34:52;11.80;99.90
14749;DHT22;7466;53.574;9.976;2022-11-15T12:37:33;11.90;99.90
14749;DHT22;7466;53.574;9.976;2022-11-15T12:40:16;12.00;99.90
14749;DHT22;7466;53.574;9.976;2022-11-15T12:42:58;12.10;99.90
14749;DHT22;7466;53.574;9.976;2022-11-15T12:45:27;12.10;99.90
14749;DHT22;7466;53.574;9.976;2022-11-15T12:48:21;12.30;99.90
14749;DHT22;7466;53.574;9.976;2022-11-15T12:50:55;12.40;99.90
14749;DHT22;7466;53.574;9.976;2022-11-15T12:53:27;12.40;99.90
14749;DHT22;7466;53.574;9.976;2022-11-15T12:56:19;12.50;99.90
14749;DHT22;7466;53.574;9.976;2022-11-15T12:58:49;12.40;99.90
14749;DHT22;7466;53.574;9.976;2022-11-15T13:01:55;12.40;99.90
14749;DHT22;7466;53.574;9.976;2022-11-15T13:04:25;12.40;99.90
14749;DHT22;7466;53.574;9.976;2022-11-15T13:06:56;12.30;99.90
14749;DHT22;7466;53.574;9.976;2022-11-15T13:09:52;12.30;99.90
14749;DHT22;7466;53.574;9.976;2022-11-15T13:12:49;12.30;99.90
14749;DHT22;7466;53.574;9.976;2022-11-15T13:18:37;12.40;99.90
14749;DHT22;7466;53.574;9.976;2022-11-15T13:21:18;12.40;99.90
14749;DHT22;7466;53.574;9.976;2022-11-15T13:24:05;12.50;99.90
14749;DHT22;7466;53.574;9.976;2022-11-15T13:26:38;12.50;99.90
14749;DHT22;7466;53.574;9.976;2022-11-15T13:29:15;12.60;99.90
14749;DHT22;7466;53.574;9.976;2022-11-15T13:31:43;12.50;99.90
14749;DHT22;7466;53.574;9.976;2022-11-15T13:34:28;12.50;99.90
14749;DHT22;7466;53.574;9.976;2022-11-15T13:36:58;12.50;99.90
14749;DHT22;7466;53.574;9.976;2022-11-15T13:39:30;12.60;99.90
14749;DHT22;7466;53.574;9.976;2022-11-15T13:41:57;12.50;99.90
14749;DHT22;7466;53.574;9.976;2022-11-15T13:44:26;12.40;99.90
14749;DHT22;7466;53.574;9.976;2022-11-15T13:47:01;12.50;99.90
14749;DHT22;7466;53.574;9.976;2022-11-15T13:49:30;12.60;99.90
14749;DHT22;7466;53.574;9.976;2022-11-15T13:51:58;12.60;99.90
14749;DHT22;7466;53.574;9.976;2022-11-15T13:54:30;12.70;99.90
14749;DHT22;7466;53.574;9.976;2022-11-15T13:57:02;12.80;99.90
14749;DHT22;7466;53.574;9.976;2022-11-15T13:59:31;13.00;99.90
14749;DHT22;7466;53.574;9.976;2022-11-15T14:02:10;12.90;99.90
14749;DHT22;7466;53.574;9.976;2022-11-15T14:04:45;12.80;99.90
14749;DHT22;7466;53.574;9.976;2022-11-15T14:07:16;12.90;99.90
14749;DHT22;7466;53.574;9.976;2022-11-15T14:09:45;12.90;99.90
14749;DHT22;7466;53.574;9.976;2022-11-15T14:12:25;12.80;99.90
14749;DHT22;7466;53.574;9.976;2022-11-15T14:14:52;12.80;99.90
14749;DHT22;7466;53.574;9.976;2022-11-15T14:17:21;12.70;99.90
14749;DHT22;7466;53.574;9.976;2022-11-15T14:19:49;12.60;99.90
14749;DHT22;7466;53.574;9.976;2022-11-15T14:22:19;12.50;99.90
14749;DHT22;7466;53.574;9.976;2022-11-15T14:25:13;12.50;99.90
14749;DHT22;7466;53.574;9.976;2022-11-15T14:27:41;12.40;99.90
14749;DHT22;7466;53.574;9.976;2022-11-15T14:30:13;12.30;99.90
14749;DHT22;7466;53.574;9.976;2022-11-15T14:32:44;12.20;99.90
14749;DHT22;7466;53.574;9.976;2022-11-15T14:35:14;12.10;99.90
14749;DHT22;7466;53.574;9.976;2022-11-15T14:37:41;12.10;99.90
14749;DHT22;7466;53.574;9.976;2022-11-15T14:40:13;12.00;99.90
14749;DHT22;7466;53.574;9.976;2022-11-15T14:42:41;12.00;99.90
14749;DHT22;7466;53.574;9.976;2022-11-15T14:45:11;11.90;99.90
14749;DHT22;7466;53.574;9.976;2022-11-15T14:47:39;11.80;99.90
14749;DHT22;7466;53.574;9.976;2022-11-15T14:50:06;11.80;99.90
14749;DHT22;7466;53.574;9.976;2022-11-15T14:52:33;11.70;99.90
14749;DHT22;7466;53.574;9.976;2022-11-15T14:55:01;11.70;99.90
14749;DHT22;7466;53.574;9.976;2022-11-15T14:57:30;11.60;99.90
14749;DHT22;7466;53.574;9.976;2022-11-15T14:59:56;11.60;99.90
14749;DHT22;7466;53.574;9.976;2022-11-15T15:02:25;11.60;99.90
14749;DHT22;7466;53.574;9.976;2022-11-15T15:04:53;11.50;99.90
14749;DHT22;7466;53.574;9.976;2022-11-15T15:07:20;11.50;99.90
14749;DHT22;7466;53.574;9.976;2022-11-15T15:09:46;11.50;99.90
14749;DHT22;7466;53.574;9.976;2022-11-15T15:12:16;11.40;99.90
14749;DHT22;7466;53.574;9.976;2022-11-15T15:14:45;11.40;99.90
14749;DHT22;7466;53.574;9.976;2022-11-15T15:17:12;11.30;99.90
14749;DHT22;7466;53.574;9.976;2022-11-15T15:19:40;11.20;99.90
14749;DHT22;7466;53.574;9.976;2022-11-15T15:22:10;11.10;99.90
14749;DHT22;7466;53.574;9.976;2022-11-15T15:24:39;11.10;99.90
14749;DHT22;7466;53.574;9.976;2022-11-15T15:27:06;11.00;99.90
14749;DHT22;7466;53.574;9.976;2022-11-15T15:29:32;10.90;99.90
14749;DHT22;7466;53.574;9.976;2022-11-15T15:32:00;10.90;99.90
14749;DHT22;7466;53.574;9.976;2022-11-15T15:34:27;10.80;99.90
14749;DHT22;7466;53.574;9.976;2022-11-15T15:37:18;10.80;99.90
14749;DHT22;7466;53.574;9.976;2022-11-15T15:39:45;10.70;99.90
14749;DHT22;7466;53.574;9.976;2022-11-15T15:42:12;10.70;99.90
14749;DHT22;7466;53.574;9.976;2022-11-15T15:44:39;10.60;99.90
14749;DHT22;7466;53.574;9.976;2022-11-15T15:47:10;10.50;99.90
14749;DHT22;7466;53.574;9.976;2022-11-15T15:49:38;10.50;99.90
14749;DHT22;7466;53.574;9.976;2022-11-15T15:52:04;10.40;99.90
14749;DHT22;7466;53.574;9.976;2022-11-15T15:54:31;10.40;99.90
14749;DHT22;7466;53.574;9.976;2022-11-15T15:56:58;10.30;99.90
14749;DHT22;7466;53.574;9.976;2022-11-15T15:59:24;10.30;99.90
14749;DHT22;7466;53.574;9.976;2022-11-15T16:01:51;10.20;99.90
14749;DHT22;7466;53.574;9.976;2022-11-15T16:04:19;10.20;99.90
14749;DHT22;7466;53.574;9.976;2022-11-15T16:06:46;10.20;99.90
14749;DHT22;7466;53.574;9.976;2022-11-15T16:09:14;10.10;99.90
14749;DHT22;7466;53.574;9.976;2022-11-15T16:11:41;10.10;99.90
14749;DHT22;7466;53.574;9.976;2022-11-15T16:14:08;10.10;99.90
14749;DHT22;7466;53.574;9.976;2022-11-15T16:16:35;10.10;99.90
14749;DHT22;7466;53.574;9.976;2022-11-15T16:19:02;10.10;99.90
14749;DHT22;7466;53.574;9.976;2022-11-15T16:21:31;10.10;99.90